sensor_id;sensor_type;location;lat;lon;timestamp;P1;durP1;ratioP1;P2;durP2;ratioP2
52494;SDS011;38405;53.212;5.660;2022-12-29T00:01:39;5.60;;;5.00;;
52494;SDS011;38405;53.212;5.660;2022-12-29T00:04:05;5.32;;;4.85;;
52494;SDS011;38405;53.212;5.660;2022-12-29T00:06:31;8.80;;;4.93;;
52494;SDS011;38405;53.212;5.660;2022-12-29T00:08:57;5.68;;;4.50;;
52494;SDS011;38405;53.212;5.660;2022-12-29T00:11:25;6.15;;;5.15;;
52494;SDS011;38405;53.212;5.660;2022-12-29T00:13:52;6.00;;;5.13;;
52494;SDS011;38405;53.212;5.660;2022-12-29T00:16:37;6.25;;;5.32;;
52494;SDS011;38405;53.212;5.660;2022-12-29T00:19:05;8.27;;;5.25;;
52494;SDS011;38405;53.212;5.660;2022-12-29T00:21:55;5.80;;;5.10;;
52494;SDS011;38405;53.212;5.660;2022-12-29T00:24:43;5.68;;;4.78;;
52494;SDS011;38405;53.212;5.660;2022-12-29T00:27:18;5.63;;;4.80;;
52494;SDS011;38405;53.212;5.660;2022-12-29T00:30:07;6.05;;;4.40;;
52494;SDS011;38405;53.212;5.660;2022-12-29T00:32:53;6.25;;;5.38;;
52494;SDS011;38405;53.212;5.660;2022-12-29T00:35:38;9.15;;;4.90;;
52494;SDS011;38405;53.212;5.660;2022-12-29T00:38:08;6.22;;;4.80;;
52494;SDS011;38405;53.212;5.660;2022-12-29T00:40:54;9.88;;;4.50;;
52494;SDS011;38405;53.212;5.660;2022-12-29T00:43:43;5.75;;;4.80;;
52494;SDS011;38405;53.212;5.660;2022-12-29T00:46:27;8.27;;;5.05;;
52494;SDS011;38405;53.212;5.660;2022-12-29T00:48:52;5.70;;;4.80;;
52494;SDS011;38405;53.212;5.660;2022-12-29T00:51:36;5.82;;;4.72;;
52494;SDS011;38405;53.212;5.660;2022-12-29T00:54:02;6.00;;;4.65;;
52494;SDS011;38405;53.212;5.660;2022-12-29T00:56:28;5.90;;;4.53;;
52494;SDS011;38405;53.212;5.660;2022-12-29T00:58:53;7.25;;;5.22;;
52494;SDS011;38405;53.212;5.660;2022-12-29T01:01:19;6.50;;;5.22;;
52494;SDS011;38405;53.212;5.660;2022-12-29T01:03:44;5.50;;;5.00;;
52494;SDS011;38405;53.212;5.660;2022-12-29T01:06:10;7.05;;;5.57;;
52494;SDS011;38405;53.212;5.660;2022-12-29T01:08:36;5.65;;;5.05;;
52494;SDS011;38405;53.212;5.660;2022-12-29T01:13:29;6.38;;;5.78;;
52494;SDS011;38405;53.212;5.660;2022-12-29T01:15:55;6.32;;;5.53;;
52494;SDS011;38405;53.212;5.660;2022-12-29T01:18:21;9.18;;;5.57;;
52494;SDS011;38405;53.212;5.660;2022-12-29T01:20:48;6.80;;;5.88;;
52494;SDS011;38405;53.212;5.660;2022-12-29T01:23:14;7.05;;;5.88;;
52494;SDS011;38405;53.212;5.660;2022-12-29T01:25:39;6.53;;;5.90;;
52494;SDS011;38405;53.212;5.660;2022-12-29T01:28:05;8.60;;;5.97;;
52494;SDS011;38405;53.212;5.660;2022-12-29T01:30:33;6.78;;;6.07;;
52494;SDS011;38405;53.212;5.660;2022-12-29T01:32:59;6.03;;;5.50;;
52494;SDS011;38405;53.212;5.660;2022-12-29T01:35:25;7.60;;;5.95;;
52494;SDS011;38405;53.212;5.660;2022-12-29T01:37:51;8.48;;;6.20;;
52494;SDS011;38405;53.212;5.660;2022-12-29T01:40:17;6.80;;;5.40;;
52494;SDS011;38405;53.212;5.660;2022-12-29T01:42:42;8.63;;;6.35;;
52494;SDS011;38405;53.212;5.660;2022-12-29T01:45:09;7.97;;;5.72;;
52494;SDS011;38405;53.212;5.660;2022-12-29T01:47:47;6.25;;;5.50;;
52494;SDS011;38405;53.212;5.660;2022-12-29T01:53:13;8.20;;;6.03;;
52494;SDS011;38405;53.212;5.660;2022-12-29T01:55:50;7.68;;;5.15;;
52494;SDS011;38405;53.212;5.660;2022-12-29T01:58:19;5.90;;;5.30;;
52494;SDS011;38405;53.212;5.660;2022-12-29T02:00:47;7.50;;;5.68;;
52494;SDS011;38405;53.212;5.660;2022-12-29T02:03:13;5.40;;;4.80;;
52494;SDS011;38405;53.212;5.660;2022-12-29T02:05:50;7.13;;;5.80;;
52494;SDS011;38405;53.212;5.660;2022-12-29T02:08:18;7.70;;;5.70;;
52494;SDS011;38405;53.212;5.660;2022-12-29T02:10:47;6.15;;;5.53;;
52494;SDS011;38405;53.212;5.660;2022-12-29T02:13:16;6.10;;;5.32;;
52494;SDS011;38405;53.212;5.660;2022-12-29T02:42:50;4.43;;;0.80;;
52494;SDS011;38405;53.212;5.660;2022-12-29T02:45:31;3.15;;;0.90;;
52494;SDS011;38405;53.212;5.660;2022-12-29T02:48:12;4.43;;;1.15;;
52494;SDS011;38405;53.212;5.660;2022-12-29T02:50:54;2.80;;;0.90;;
52494;SDS011;38405;53.212;5.660;2022-12-29T02:56:08;2.63;;;1.02;;
52494;SDS011;38405;53.212;5.660;2022-12-29T02:58:34;4.15;;;1.20;;
52494;SDS011;38405;53.212;5.660;2022-12-29T03:15:13;11.60;;;2.15;;
52494;SDS011;38405;53.212;5.660;2022-12-29T03:18:15;11.57;;;2.30;;
52494;SDS011;38405;53.212;5.660;2022-12-29T03:21:00;14.90;;;3.22;;
52494;SDS011;38405;53.212;5.660;2022-12-29T03:23:34;10.70;;;1.90;;
52494;SDS011;38405;53.212;5.660;2022-12-29T03:26:03;16.98;;;2.78;;
52494;SDS011;38405;53.212;5.660;2022-12-29T03:28:35;12.63;;;2.30;;
52494;SDS011;38405;53.212;5.660;2022-12-29T03:31:04;17.67;;;2.40;;
52494;SDS011;38405;53.212;5.660;2022-12-29T03:33:32;14.45;;;2.25;;
52494;SDS011;38405;53.212;5.660;2022-12-29T03:36:02;18.80;;;2.88;;
52494;SDS011;38405;53.212;5.660;2022-12-29T03:40:59;13.82;;;2.28;;
52494;SDS011;38405;53.212;5.660;2022-12-29T03:43:28;14.70;;;2.60;;
52494;SDS011;38405;53.212;5.660;2022-12-29T03:45:54;19.73;;;3.13;;
52494;SDS011;38405;53.212;5.660;2022-12-29T03:48:20;11.50;;;2.53;;
52494;SDS011;38405;53.212;5.660;2022-12-29T03:50:46;15.52;;;3.00;;
52494;SDS011;38405;53.212;5.660;2022-12-29T03:53:11;13.20;;;2.78;;
52494;SDS011;38405;53.212;5.660;2022-12-29T03:55:37;19.00;;;2.38;;
52494;SDS011;38405;53.212;5.660;2022-12-29T03:58:02;13.27;;;2.45;;
52494;SDS011;38405;53.212;5.660;2022-12-29T04:00:28;15.32;;;2.72;;
52494;SDS011;38405;53.212;5.660;2022-12-29T04:02:54;16.17;;;2.50;;
52494;SDS011;38405;53.212;5.660;2022-12-29T04:05:20;15.10;;;2.28;;
52494;SDS011;38405;53.212;5.660;2022-12-29T04:07:46;21.15;;;2.50;;
52494;SDS011;38405;53.212;5.660;2022-12-29T04:10:11;19.73;;;2.42;;
52494;SDS011;38405;53.212;5.660;2022-12-29T04:12:37;12.48;;;2.35;;
52494;SDS011;38405;53.212;5.660;2022-12-29T04:15:03;14.93;;;2.47;;
52494;SDS011;38405;53.212;5.660;2022-12-29T04:17:30;17.05;;;2.80;;
52494;SDS011;38405;53.212;5.660;2022-12-29T04:19:56;24.35;;;3.33;;
52494;SDS011;38405;53.212;5.660;2022-12-29T04:22:41;17.35;;;2.83;;
52494;SDS011;38405;53.212;5.660;2022-12-29T04:25:07;21.27;;;2.97;;
52494;SDS011;38405;53.212;5.660;2022-12-29T04:27:33;16.27;;;2.47;;
52494;SDS011;38405;53.212;5.660;2022-12-29T04:29:58;23.70;;;3.10;;
52494;SDS011;38405;53.212;5.660;2022-12-29T04:32:24;20.05;;;3.08;;
52494;SDS011;38405;53.212;5.660;2022-12-29T04:34:50;26.52;;;3.75;;
52494;SDS011;38405;53.212;5.660;2022-12-29T04:37:15;18.65;;;3.30;;
52494;SDS011;38405;53.212;5.660;2022-12-29T04:39:41;22.60;;;3.80;;
52494;SDS011;38405;53.212;5.660;2022-12-29T04:42:06;35.15;;;4.55;;
52494;SDS011;38405;53.212;5.660;2022-12-29T04:44:32;23.80;;;4.00;;
52494;SDS011;38405;53.212;5.660;2022-12-29T04:46:57;34.65;;;5.20;;
52494;SDS011;38405;53.212;5.660;2022-12-29T04:49:23;21.85;;;4.13;;
52494;SDS011;38405;53.212;5.660;2022-12-29T04:51:49;30.20;;;4.38;;
52494;SDS011;38405;53.212;5.660;2022-12-29T04:54:14;33.22;;;4.38;;
52494;SDS011;38405;53.212;5.660;2022-12-29T04:56:40;23.70;;;4.18;;
52494;SDS011;38405;53.212;5.660;2022-12-29T04:59:05;35.22;;;4.30;;
52494;SDS011;38405;53.212;5.660;2022-12-29T05:01:31;28.60;;;4.15;;
52494;SDS011;38405;53.212;5.660;2022-12-29T05:03:57;38.25;;;5.22;;
52494;SDS011;38405;53.212;5.660;2022-12-29T05:06:22;23.35;;;4.00;;
52494;SDS011;38405;53.212;5.660;2022-12-29T05:08:48;34.42;;;5.35;;
52494;SDS011;38405;53.212;5.660;2022-12-29T05:11:13;28.25;;;4.60;;
52494;SDS011;38405;53.212;5.660;2022-12-29T05:13:39;34.33;;;4.65;;
52494;SDS011;38405;53.212;5.660;2022-12-29T05:16:05;27.15;;;4.13;;
52494;SDS011;38405;53.212;5.660;2022-12-29T05:18:31;29.65;;;4.55;;
52494;SDS011;38405;53.212;5.660;2022-12-29T05:20:56;27.90;;;4.10;;
52494;SDS011;38405;53.212;5.660;2022-12-29T05:23:22;24.60;;;3.63;;
52494;SDS011;38405;53.212;5.660;2022-12-29T05:25:47;27.98;;;4.85;;
52494;SDS011;38405;53.212;5.660;2022-12-29T05:28:13;39.13;;;4.78;;
52494;SDS011;38405;53.212;5.660;2022-12-29T05:30:39;22.70;;;3.97;;
52494;SDS011;38405;53.212;5.660;2022-12-29T05:33:04;24.00;;;3.70;;
52494;SDS011;38405;53.212;5.660;2022-12-29T05:35:31;19.55;;;3.53;;
52494;SDS011;38405;53.212;5.660;2022-12-29T05:37:57;24.08;;;4.25;;
52494;SDS011;38405;53.212;5.660;2022-12-29T05:40:23;26.35;;;4.35;;
52494;SDS011;38405;53.212;5.660;2022-12-29T05:42:49;23.70;;;3.85;;
52494;SDS011;38405;53.212;5.660;2022-12-29T05:45:14;23.35;;;4.65;;
52494;SDS011;38405;53.212;5.660;2022-12-29T05:47:40;25.58;;;4.38;;
52494;SDS011;38405;53.212;5.660;2022-12-29T05:50:06;21.23;;;4.45;;
52494;SDS011;38405;53.212;5.660;2022-12-29T05:52:31;31.95;;;4.70;;
52494;SDS011;38405;53.212;5.660;2022-12-29T05:54:57;29.45;;;4.32;;
52494;SDS011;38405;53.212;5.660;2022-12-29T05:57:23;20.40;;;3.88;;
52494;SDS011;38405;53.212;5.660;2022-12-29T05:59:48;32.80;;;4.63;;
52494;SDS011;38405;53.212;5.660;2022-12-29T06:02:14;24.13;;;4.10;;
52494;SDS011;38405;53.212;5.660;2022-12-29T06:04:39;28.80;;;3.85;;
52494;SDS011;38405;53.212;5.660;2022-12-29T06:07:05;23.88;;;4.22;;
52494;SDS011;38405;53.212;5.660;2022-12-29T06:09:31;25.52;;;4.88;;
52494;SDS011;38405;53.212;5.660;2022-12-29T06:11:56;21.88;;;3.70;;
52494;SDS011;38405;53.212;5.660;2022-12-29T06:14:22;30.30;;;5.13;;
52494;SDS011;38405;53.212;5.660;2022-12-29T06:16:47;26.25;;;3.65;;
52494;SDS011;38405;53.212;5.660;2022-12-29T06:19:13;34.97;;;4.70;;
52494;SDS011;38405;53.212;5.660;2022-12-29T06:21:39;26.15;;;4.45;;
52494;SDS011;38405;53.212;5.660;2022-12-29T06:24:04;30.05;;;4.60;;
52494;SDS011;38405;53.212;5.660;2022-12-29T06:26:30;29.70;;;4.43;;
52494;SDS011;38405;53.212;5.660;2022-12-29T06:28:56;33.42;;;3.92;;
52494;SDS011;38405;53.212;5.660;2022-12-29T06:31:22;24.65;;;3.80;;
52494;SDS011;38405;53.212;5.660;2022-12-29T06:33:47;30.38;;;4.97;;
52494;SDS011;38405;53.212;5.660;2022-12-29T06:36:13;23.83;;;4.93;;
52494;SDS011;38405;53.212;5.660;2022-12-29T06:38:38;30.55;;;4.53;;
52494;SDS011;38405;53.212;5.660;2022-12-29T06:41:04;33.78;;;4.65;;
52494;SDS011;38405;53.212;5.660;2022-12-29T06:43:30;39.65;;;5.85;;
52494;SDS011;38405;53.212;5.660;2022-12-29T06:45:57;37.90;;;4.80;;
52494;SDS011;38405;53.212;5.660;2022-12-29T06:48:22;33.65;;;5.55;;
52494;SDS011;38405;53.212;5.660;2022-12-29T06:50:48;34.97;;;4.93;;
52494;SDS011;38405;53.212;5.660;2022-12-29T06:53:14;31.65;;;4.43;;
52494;SDS011;38405;53.212;5.660;2022-12-29T06:55:40;33.33;;;5.20;;
52494;SDS011;38405;53.212;5.660;2022-12-29T06:58:06;37.67;;;5.25;;
52494;SDS011;38405;53.212;5.660;2022-12-29T07:00:32;27.15;;;4.28;;
52494;SDS011;38405;53.212;5.660;2022-12-29T07:02:58;26.05;;;5.03;;
52494;SDS011;38405;53.212;5.660;2022-12-29T07:05:24;30.63;;;5.00;;
52494;SDS011;38405;53.212;5.660;2022-12-29T07:07:52;24.20;;;4.28;;
52494;SDS011;38405;53.212;5.660;2022-12-29T07:10:18;22.23;;;5.22;;
52494;SDS011;38405;53.212;5.660;2022-12-29T07:12:44;36.03;;;5.18;;
52494;SDS011;38405;53.212;5.660;2022-12-29T07:15:10;27.85;;;4.25;;
52494;SDS011;38405;53.212;5.660;2022-12-29T07:17:35;39.22;;;5.55;;
52494;SDS011;38405;53.212;5.660;2022-12-29T07:20:01;31.13;;;5.50;;
52494;SDS011;38405;53.212;5.660;2022-12-29T07:22:27;26.63;;;5.07;;
52494;SDS011;38405;53.212;5.660;2022-12-29T07:24:52;37.55;;;5.32;;
52494;SDS011;38405;53.212;5.660;2022-12-29T07:27:18;30.33;;;4.60;;
52494;SDS011;38405;53.212;5.660;2022-12-29T07:29:44;28.65;;;5.05;;
52494;SDS011;38405;53.212;5.660;2022-12-29T07:32:09;30.60;;;4.47;;
52494;SDS011;38405;53.212;5.660;2022-12-29T07:34:35;33.65;;;5.70;;
52494;SDS011;38405;53.212;5.660;2022-12-29T07:37:01;33.85;;;5.35;;
52494;SDS011;38405;53.212;5.660;2022-12-29T07:39:26;32.05;;;5.50;;
52494;SDS011;38405;53.212;5.660;2022-12-29T07:41:52;32.25;;;4.82;;
52494;SDS011;38405;53.212;5.660;2022-12-29T07:44:17;27.35;;;4.25;;
52494;SDS011;38405;53.212;5.660;2022-12-29T07:46:43;31.80;;;4.93;;
52494;SDS011;38405;53.212;5.660;2022-12-29T07:49:09;31.48;;;4.90;;
52494;SDS011;38405;53.212;5.660;2022-12-29T07:51:34;34.88;;;5.15;;
52494;SDS011;38405;53.212;5.660;2022-12-29T07:54:00;24.60;;;3.80;;
52494;SDS011;38405;53.212;5.660;2022-12-29T07:56:26;22.95;;;4.22;;
52494;SDS011;38405;53.212;5.660;2022-12-29T07:58:52;27.00;;;5.30;;
52494;SDS011;38405;53.212;5.660;2022-12-29T08:01:17;31.10;;;5.18;;
52494;SDS011;38405;53.212;5.660;2022-12-29T08:03:43;31.25;;;4.88;;
52494;SDS011;38405;53.212;5.660;2022-12-29T08:06:09;34.53;;;5.78;;
52494;SDS011;38405;53.212;5.660;2022-12-29T08:08:35;30.40;;;4.80;;
52494;SDS011;38405;53.212;5.660;2022-12-29T08:11:01;36.97;;;5.80;;
52494;SDS011;38405;53.212;5.660;2022-12-29T08:13:27;23.60;;;5.13;;
52494;SDS011;38405;53.212;5.660;2022-12-29T08:15:52;26.17;;;4.97;;
52494;SDS011;38405;53.212;5.660;2022-12-29T08:18:18;34.97;;;5.15;;
52494;SDS011;38405;53.212;5.660;2022-12-29T08:20:44;32.38;;;5.07;;
52494;SDS011;38405;53.212;5.660;2022-12-29T08:23:09;31.10;;;5.13;;
52494;SDS011;38405;53.212;5.660;2022-12-29T08:25:35;41.75;;;5.90;;
52494;SDS011;38405;53.212;5.660;2022-12-29T08:28:01;39.45;;;6.30;;
52494;SDS011;38405;53.212;5.660;2022-12-29T08:30:26;31.13;;;6.25;;
52494;SDS011;38405;53.212;5.660;2022-12-29T08:32:52;41.95;;;6.75;;
52494;SDS011;38405;53.212;5.660;2022-12-29T08:35:17;36.42;;;5.82;;
52494;SDS011;38405;53.212;5.660;2022-12-29T08:37:43;33.85;;;5.50;;
52494;SDS011;38405;53.212;5.660;2022-12-29T08:40:09;43.60;;;6.20;;
52494;SDS011;38405;53.212;5.660;2022-12-29T08:42:35;44.45;;;6.60;;
52494;SDS011;38405;53.212;5.660;2022-12-29T08:45:00;39.15;;;5.45;;
52494;SDS011;38405;53.212;5.660;2022-12-29T08:47:26;31.90;;;5.00;;
52494;SDS011;38405;53.212;5.660;2022-12-29T08:49:52;37.55;;;5.35;;
52494;SDS011;38405;53.212;5.660;2022-12-29T08:52:18;39.95;;;5.82;;
52494;SDS011;38405;53.212;5.660;2022-12-29T08:54:44;31.98;;;5.95;;
52494;SDS011;38405;53.212;5.660;2022-12-29T08:57:09;34.70;;;4.90;;
52494;SDS011;38405;53.212;5.660;2022-12-29T08:59:35;35.85;;;6.15;;
52494;SDS011;38405;53.212;5.660;2022-12-29T09:02:01;38.00;;;5.68;;
52494;SDS011;38405;53.212;5.660;2022-12-29T09:04:27;39.17;;;5.45;;
52494;SDS011;38405;53.212;5.660;2022-12-29T09:06:53;40.47;;;5.03;;
52494;SDS011;38405;53.212;5.660;2022-12-29T09:09:19;39.22;;;6.20;;
52494;SDS011;38405;53.212;5.660;2022-12-29T09:11:45;40.47;;;6.00;;
52494;SDS011;38405;53.212;5.660;2022-12-29T09:14:11;40.22;;;6.45;;
52494;SDS011;38405;53.212;5.660;2022-12-29T09:16:37;42.45;;;5.53;;
52494;SDS011;38405;53.212;5.660;2022-12-29T09:19:03;34.92;;;5.78;;
52494;SDS011;38405;53.212;5.660;2022-12-29T09:21:29;32.10;;;5.68;;
52494;SDS011;38405;53.212;5.660;2022-12-29T09:23:55;40.53;;;5.53;;
52494;SDS011;38405;53.212;5.660;2022-12-29T09:26:21;44.80;;;5.82;;
52494;SDS011;38405;53.212;5.660;2022-12-29T09:28:47;43.08;;;6.78;;
52494;SDS011;38405;53.212;5.660;2022-12-29T09:31:13;36.97;;;6.10;;
52494;SDS011;38405;53.212;5.660;2022-12-29T09:33:39;41.92;;;7.10;;
52494;SDS011;38405;53.212;5.660;2022-12-29T09:36:05;44.58;;;7.05;;
52494;SDS011;38405;53.212;5.660;2022-12-29T09:38:31;43.63;;;6.13;;
52494;SDS011;38405;53.212;5.660;2022-12-29T09:41:19;48.15;;;7.57;;
52494;SDS011;38405;53.212;5.660;2022-12-29T09:48:53;23.58;;;3.97;;
52494;SDS011;38405;53.212;5.660;2022-12-29T09:51:31;23.95;;;3.60;;
52494;SDS011;38405;53.212;5.660;2022-12-29T09:54:00;31.30;;;4.30;;
52494;SDS011;38405;53.212;5.660;2022-12-29T09:56:36;32.03;;;4.97;;
52494;SDS011;38405;53.212;5.660;2022-12-29T09:59:04;37.28;;;6.70;;
52494;SDS011;38405;53.212;5.660;2022-12-29T10:01:41;45.20;;;7.07;;
52494;SDS011;38405;53.212;5.660;2022-12-29T10:04:11;42.35;;;5.97;;
52494;SDS011;38405;53.212;5.660;2022-12-29T10:17:01;42.80;;;6.70;;
52494;SDS011;38405;53.212;5.660;2022-12-29T10:24:54;51.17;;;7.22;;
52494;SDS011;38405;53.212;5.660;2022-12-29T10:27:27;53.75;;;7.70;;
52494;SDS011;38405;53.212;5.660;2022-12-29T10:29:55;46.30;;;6.82;;
52494;SDS011;38405;53.212;5.660;2022-12-29T10:34:51;46.17;;;6.72;;
52494;SDS011;38405;53.212;5.660;2022-12-29T10:40:51;42.30;;;5.82;;
52494;SDS011;38405;53.212;5.660;2022-12-29T10:43:19;34.05;;;4.80;;
52494;SDS011;38405;53.212;5.660;2022-12-29T10:45:51;30.30;;;5.13;;
52494;SDS011;38405;53.212;5.660;2022-12-29T10:48:23;24.30;;;4.50;;
52494;SDS011;38405;53.212;5.660;2022-12-29T10:50:53;37.30;;;5.43;;
52494;SDS011;38405;53.212;5.660;2022-12-29T10:53:23;38.75;;;5.25;;
52494;SDS011;38405;53.212;5.660;2022-12-29T10:55:52;27.55;;;5.18;;
52494;SDS011;38405;53.212;5.660;2022-12-29T10:58:19;33.03;;;4.72;;
52494;SDS011;38405;53.212;5.660;2022-12-29T11:00:50;36.30;;;5.07;;
52494;SDS011;38405;53.212;5.660;2022-12-29T11:08:51;24.77;;;4.60;;
52494;SDS011;38405;53.212;5.660;2022-12-29T11:11:22;25.00;;;3.33;;
52494;SDS011;38405;53.212;5.660;2022-12-29T11:13:55;25.50;;;3.72;;
52494;SDS011;38405;53.212;5.660;2022-12-29T11:16:32;19.77;;;3.40;;
52494;SDS011;38405;53.212;5.660;2022-12-29T11:18:59;22.35;;;3.72;;
52494;SDS011;38405;53.212;5.660;2022-12-29T11:21:38;15.48;;;3.20;;
52494;SDS011;38405;53.212;5.660;2022-12-29T11:24:20;17.63;;;3.50;;
52494;SDS011;38405;53.212;5.660;2022-12-29T11:26:49;20.83;;;4.05;;
52494;SDS011;38405;53.212;5.660;2022-12-29T11:29:22;18.95;;;3.10;;
52494;SDS011;38405;53.212;5.660;2022-12-29T11:31:57;16.27;;;2.65;;
52494;SDS011;38405;53.212;5.660;2022-12-29T11:34:34;7.78;;;2.33;;
52494;SDS011;38405;53.212;5.660;2022-12-29T11:37:04;12.45;;;2.90;;
52494;SDS011;38405;53.212;5.660;2022-12-29T11:42:36;14.23;;;3.10;;
52494;SDS011;38405;53.212;5.660;2022-12-29T11:45:26;15.38;;;2.92;;
52494;SDS011;38405;53.212;5.660;2022-12-29T11:48:07;15.20;;;2.70;;
52494;SDS011;38405;53.212;5.660;2022-12-29T11:50:41;16.23;;;3.55;;
52494;SDS011;38405;53.212;5.660;2022-12-29T11:53:17;13.83;;;2.50;;
52494;SDS011;38405;53.212;5.660;2022-12-29T11:55:55;20.90;;;2.92;;
52494;SDS011;38405;53.212;5.660;2022-12-29T11:58:33;15.55;;;3.30;;
52494;SDS011;38405;53.212;5.660;2022-12-29T12:03:43;12.23;;;3.38;;
52494;SDS011;38405;53.212;5.660;2022-12-29T12:06:14;14.70;;;2.73;;
52494;SDS011;38405;53.212;5.660;2022-12-29T12:08:46;14.10;;;2.80;;
52494;SDS011;38405;53.212;5.660;2022-12-29T12:11:30;21.40;;;3.80;;
52494;SDS011;38405;53.212;5.660;2022-12-29T12:14:02;16.02;;;2.92;;
52494;SDS011;38405;53.212;5.660;2022-12-29T12:16:43;18.60;;;2.85;;
52494;SDS011;38405;53.212;5.660;2022-12-29T12:22:17;18.02;;;3.17;;
52494;SDS011;38405;53.212;5.660;2022-12-29T12:24:57;13.30;;;2.42;;
52494;SDS011;38405;53.212;5.660;2022-12-29T12:30:19;21.55;;;2.75;;
52494;SDS011;38405;53.212;5.660;2022-12-29T12:32:54;12.68;;;2.20;;
52494;SDS011;38405;53.212;5.660;2022-12-29T12:35:43;15.60;;;2.90;;
52494;SDS011;38405;53.212;5.660;2022-12-29T12:41:11;13.63;;;2.53;;
52494;SDS011;38405;53.212;5.660;2022-12-29T12:43:45;19.65;;;2.92;;
52494;SDS011;38405;53.212;5.660;2022-12-29T12:51:48;11.48;;;2.60;;
52494;SDS011;38405;53.212;5.660;2022-12-29T12:56:51;16.17;;;2.95;;
52494;SDS011;38405;53.212;5.660;2022-12-29T13:18:58;15.02;;;2.50;;
52494;SDS011;38405;53.212;5.660;2022-12-29T13:22:01;16.13;;;2.58;;
52494;SDS011;38405;53.212;5.660;2022-12-29T13:30:20;15.95;;;2.83;;
52494;SDS011;38405;53.212;5.660;2022-12-29T13:35:35;15.40;;;3.40;;
52494;SDS011;38405;53.212;5.660;2022-12-29T13:40:43;16.85;;;3.17;;
52494;SDS011;38405;53.212;5.660;2022-12-29T13:43:12;19.60;;;2.90;;
52494;SDS011;38405;53.212;5.660;2022-12-29T13:45:39;16.77;;;2.42;;
52494;SDS011;38405;53.212;5.660;2022-12-29T13:50:55;18.60;;;2.67;;
52494;SDS011;38405;53.212;5.660;2022-12-29T13:53:30;17.75;;;2.67;;
52494;SDS011;38405;53.212;5.660;2022-12-29T13:58:56;12.48;;;2.60;;
52494;SDS011;38405;53.212;5.660;2022-12-29T14:05:00;16.05;;;3.67;;
52494;SDS011;38405;53.212;5.660;2022-12-29T14:07:28;15.18;;;2.33;;
52494;SDS011;38405;53.212;5.660;2022-12-29T14:09:55;20.52;;;3.00;;
52494;SDS011;38405;53.212;5.660;2022-12-29T14:12:32;12.23;;;2.53;;
52494;SDS011;38405;53.212;5.660;2022-12-29T14:15:04;19.70;;;3.13;;
52494;SDS011;38405;53.212;5.660;2022-12-29T14:17:31;17.05;;;3.40;;
52494;SDS011;38405;53.212;5.660;2022-12-29T14:19:57;17.35;;;2.80;;
52494;SDS011;38405;53.212;5.660;2022-12-29T14:22:24;19.65;;;3.22;;
52494;SDS011;38405;53.212;5.660;2022-12-29T14:24:51;17.88;;;2.92;;
52494;SDS011;38405;53.212;5.660;2022-12-29T14:29:45;14.85;;;2.63;;
52494;SDS011;38405;53.212;5.660;2022-12-29T14:34:51;12.85;;;2.63;;
52494;SDS011;38405;53.212;5.660;2022-12-29T14:37:25;13.13;;;2.40;;
52494;SDS011;38405;53.212;5.660;2022-12-29T14:42:48;15.10;;;2.90;;
52494;SDS011;38405;53.212;5.660;2022-12-29T14:47:45;27.20;;;3.15;;
52494;SDS011;38405;53.212;5.660;2022-12-29T15:00:31;17.23;;;2.78;;
52494;SDS011;38405;53.212;5.660;2022-12-29T15:03:05;21.48;;;3.20;;
52494;SDS011;38405;53.212;5.660;2022-12-29T15:08:10;18.88;;;3.17;;
52494;SDS011;38405;53.212;5.660;2022-12-29T15:11:06;24.23;;;3.97;;
52494;SDS011;38405;53.212;5.660;2022-12-29T15:13:39;20.00;;;2.88;;
52494;SDS011;38405;53.212;5.660;2022-12-29T15:18:56;22.08;;;3.25;;
52494;SDS011;38405;53.212;5.660;2022-12-29T15:21:23;22.60;;;3.17;;
52494;SDS011;38405;53.212;5.660;2022-12-29T15:23:56;19.95;;;3.08;;
52494;SDS011;38405;53.212;5.660;2022-12-29T15:26:22;20.83;;;2.70;;
52494;SDS011;38405;53.212;5.660;2022-12-29T15:29:00;21.20;;;3.08;;
52494;SDS011;38405;53.212;5.660;2022-12-29T15:31:26;22.33;;;3.88;;
52494;SDS011;38405;53.212;5.660;2022-12-29T15:33:52;17.90;;;2.95;;
52494;SDS011;38405;53.212;5.660;2022-12-29T15:36:21;17.65;;;2.78;;
52494;SDS011;38405;53.212;5.660;2022-12-29T15:38:48;18.67;;;3.10;;
52494;SDS011;38405;53.212;5.660;2022-12-29T15:41:25;21.33;;;3.60;;
52494;SDS011;38405;53.212;5.660;2022-12-29T15:46:41;24.48;;;2.78;;
52494;SDS011;38405;53.212;5.660;2022-12-29T15:49:07;14.45;;;3.15;;
52494;SDS011;38405;53.212;5.660;2022-12-29T15:51:37;22.90;;;3.20;;
52494;SDS011;38405;53.212;5.660;2022-12-29T15:54:05;12.45;;;2.60;;
52494;SDS011;38405;53.212;5.660;2022-12-29T15:56:32;14.13;;;2.47;;
52494;SDS011;38405;53.212;5.660;2022-12-29T15:58:58;16.05;;;2.10;;
52494;SDS011;38405;53.212;5.660;2022-12-29T16:06:33;18.10;;;2.90;;
52494;SDS011;38405;53.212;5.660;2022-12-29T16:14:07;19.88;;;2.78;;
52494;SDS011;38405;53.212;5.660;2022-12-29T16:16:41;13.23;;;2.83;;
52494;SDS011;38405;53.212;5.660;2022-12-29T16:19:13;18.50;;;2.58;;
52494;SDS011;38405;53.212;5.660;2022-12-29T16:21:51;18.25;;;2.75;;
52494;SDS011;38405;53.212;5.660;2022-12-29T16:24:21;16.55;;;2.53;;
52494;SDS011;38405;53.212;5.660;2022-12-29T16:26:56;18.80;;;2.75;;
52494;SDS011;38405;53.212;5.660;2022-12-29T16:29:27;10.85;;;2.42;;
52494;SDS011;38405;53.212;5.660;2022-12-29T16:31:55;19.08;;;2.85;;
52494;SDS011;38405;53.212;5.660;2022-12-29T16:34:42;29.40;;;3.60;;
52494;SDS011;38405;53.212;5.660;2022-12-29T16:39:44;14.73;;;2.75;;
52494;SDS011;38405;53.212;5.660;2022-12-29T16:50:35;25.00;;;3.10;;
52494;SDS011;38405;53.212;5.660;2022-12-29T16:53:03;25.38;;;3.05;;
52494;SDS011;38405;53.212;5.660;2022-12-29T16:55:31;18.65;;;3.25;;
52494;SDS011;38405;53.212;5.660;2022-12-29T16:57:57;21.35;;;3.15;;
52494;SDS011;38405;53.212;5.660;2022-12-29T17:00:24;20.75;;;2.78;;
52494;SDS011;38405;53.212;5.660;2022-12-29T17:02:52;19.05;;;3.15;;
52494;SDS011;38405;53.212;5.660;2022-12-29T17:05:21;23.48;;;4.13;;
52494;SDS011;38405;53.212;5.660;2022-12-29T17:07:47;18.10;;;3.50;;
52494;SDS011;38405;53.212;5.660;2022-12-29T17:10:13;25.23;;;3.63;;
52494;SDS011;38405;53.212;5.660;2022-12-29T17:12:40;19.27;;;3.00;;
52494;SDS011;38405;53.212;5.660;2022-12-29T17:17:43;22.42;;;4.30;;
52494;SDS011;38405;53.212;5.660;2022-12-29T17:20:18;26.13;;;3.20;;
52494;SDS011;38405;53.212;5.660;2022-12-29T17:22:46;17.20;;;3.30;;
52494;SDS011;38405;53.212;5.660;2022-12-29T17:25:17;17.92;;;3.78;;
52494;SDS011;38405;53.212;5.660;2022-12-29T17:27:58;24.20;;;2.97;;
52494;SDS011;38405;53.212;5.660;2022-12-29T17:30:45;21.92;;;3.58;;
52494;SDS011;38405;53.212;5.660;2022-12-29T17:33:14;18.30;;;3.22;;
52494;SDS011;38405;53.212;5.660;2022-12-29T17:35:42;23.90;;;3.60;;
52494;SDS011;38405;53.212;5.660;2022-12-29T17:38:30;21.58;;;2.95;;
52494;SDS011;38405;53.212;5.660;2022-12-29T17:40:55;26.00;;;3.38;;
52494;SDS011;38405;53.212;5.660;2022-12-29T17:43:22;19.17;;;2.85;;
52494;SDS011;38405;53.212;5.660;2022-12-29T17:45:52;24.33;;;4.72;;
52494;SDS011;38405;53.212;5.660;2022-12-29T17:48:19;20.83;;;2.78;;
52494;SDS011;38405;53.212;5.660;2022-12-29T17:50:46;22.30;;;3.38;;
52494;SDS011;38405;53.212;5.660;2022-12-29T17:53:14;16.45;;;2.90;;
52494;SDS011;38405;53.212;5.660;2022-12-29T17:55:43;26.98;;;3.72;;
52494;SDS011;38405;53.212;5.660;2022-12-29T17:58:31;15.65;;;3.10;;
52494;SDS011;38405;53.212;5.660;2022-12-29T18:00:57;15.52;;;2.67;;
52494;SDS011;38405;53.212;5.660;2022-12-29T18:03:31;20.25;;;3.10;;
52494;SDS011;38405;53.212;5.660;2022-12-29T18:05:59;19.25;;;3.75;;
52494;SDS011;38405;53.212;5.660;2022-12-29T18:08:25;23.42;;;2.85;;